Time;durP1;ratioP1;P1;durP2;ratioP2;P2;SDS_P1;SDS_P2;PMS_P1;PMS_P2;Temp;Humidity;BMP_temperature;BMP_pressure;BME280_temperature;BME280_humidity;BME280_pressure;Samples;Min_cycle;Max_cycle;Signal;HPM_P1;HPM_P2
2022/06/11 00:01:09;;;;;;;3.47;2.20;;;;;;;;;;5018080;28;20045;-85
2022/06/11 00:03:35;;;;;;;3.50;2.10;;;;;;;;;;5016657;28;20038;-84
2022/06/11 00:06:02;;;;;;;3.38;1.85;;;;;;;;;;5017226;28;20033;-84
2022/06/11 00:08:27;;;;;;;3.00;1.85;;;;;;;;;;5017646;28;20037;-87
2022/06/11 00:10:53;;;;;;;6.95;2.60;;;;;;;;;;5016679;28;20034;-85
2022/06/11 00:13:22;;;;;;;4.63;2.60;;;;;;;;;;5017364;28;20117;-86
2022/06/11 00:15:49;;;;;;;3.88;2.03;;;;;;;;;;5016348;28;20044;-86
2022/06/11 00:18:17;;;;;;;4.40;2.30;;;;;;;;;;5017864;28;20041;-85
2022/06/11 00:20:43;;;;;;;8.10;2.20;;;;;;;;;;5016985;28;20053;-85
2022/06/11 00:23:09;;;;;;;5.97;2.13;;;;;;;;;;5015722;28;20038;-86
2022/06/11 00:25:35;;;;;;;4.15;2.00;;;;;;;;;;5014917;28;20426;-86
2022/06/11 00:28:02;;;;;;;7.40;2.30;;;;;;;;;;4999358;28;20149;-85
2022/06/11 00:30:28;;;;;;;5.03;2.08;;;;;;;;;;5017552;28;20049;-85
2022/06/11 00:32:55;;;;;;;3.28;2.20;;;;;;;;;;5016550;28;20384;-85
2022/06/11 00:35:22;;;;;;;4.00;2.30;;;;;;;;;;5016599;28;20037;-85
2022/06/11 00:37:48;;;;;;;4.00;2.10;;;;;;;;;;5018045;28;20038;-84
2022/06/11 00:40:20;;;;;;;2.85;2.10;;;;;;;;;;5017588;28;20572;-84
2022/06/11 00:42:46;;;;;;;3.50;2.20;;;;;;;;;;5016165;28;20076;-85
2022/06/11 00:45:35;;;;;;;5.72;2.13;;;;;;;;;;5016101;28;20155;-85
2022/06/11 00:48:15;;;;;;;3.33;2.00;;;;;;;;;;5015993;28;20435;-85
2022/06/11 00:50:49;;;;;;;2.88;2.20;;;;;;;;;;5017452;28;20038;-85
2022/06/11 00:53:28;;;;;;;5.35;2.15;;;;;;;;;;5017164;28;20026;-85
2022/06/11 00:55:54;;;;;;;4.88;1.98;;;;;;;;;;5016382;28;20037;-85
2022/06/11 00:58:23;;;;;;;2.40;2.10;;;;;;;;;;5015558;28;20034;-84
2022/06/11 01:00:55;;;;;;;3.35;2.30;;;;;;;;;;5015548;28;20034;-85
2022/06/11 01:03:26;;;;;;;3.78;2.45;;;;;;;;;;5016738;28;20044;-84
2022/06/11 01:06:19;;;;;;;3.42;2.10;;;;;;;;;;5017782;28;20049;-87
2022/06/11 01:08:55;;;;;;;3.13;2.20;;;;;;;;;;5002521;28;20052;-87
2022/06/11 01:11:36;;;;;;;2.85;2.10;;;;;;;;;;5018857;28;20045;-86
2022/06/11 01:14:25;;;;;;;3.38;2.05;;;;;;;;;;5019356;28;20065;-85
2022/06/11 01:17:09;;;;;;;4.47;2.22;;;;;;;;;;5019057;28;20120;-86
2022/06/11 01:19:53;;;;;;;;;;;;;;;;;;5019576;28;20108;-86
2022/06/11 01:22:37;;;;;;;2.63;1.92;;;;;;;;;;5020727;28;19953;-86
2022/06/11 01:25:21;;;;;;;6.90;2.25;;;;;;;;;;5019344;28;20041;-86
2022/06/11 01:28:05;;;;;;;2.22;2.03;;;;;;;;;;5020618;28;20117;-86
2022/06/11 01:30:54;;;;;;;3.97;2.30;;;;;;;;;;5020045;28;20450;-85
2022/06/11 01:33:48;;;;;;;3.17;2.25;;;;;;;;;;5018639;28;20030;-86
2022/06/11 01:36:31;;;;;;;4.85;2.22;;;;;;;;;;5018792;28;20135;-86
2022/06/11 01:39:13;;;;;;;3.00;2.20;;;;;;;;;;5019648;28;20048;-85
2022/06/11 01:41:38;;;;;;;3.60;2.20;;;;;;;;;;5019867;28;20103;-85
2022/06/11 01:44:14;;;;;;;2.50;2.10;;;;;;;;;;5018496;28;20038;-85
2022/06/11 01:46:43;;;;;;;3.10;2.45;;;;;;;;;;5019813;28;20058;-86
2022/06/11 01:49:28;;;;;;;3.00;2.20;;;;;;;;;;5019931;28;20548;-86
2022/06/11 01:52:15;;;;;;;5.78;2.40;;;;;;;;;;5019093;28;20044;-85
2022/06/11 01:54:58;;;;;;;3.38;2.30;;;;;;;;;;5018735;28;20034;-85
2022/06/11 01:57:53;;;;;;;3.42;2.00;;;;;;;;;;5018556;28;20109;-85
2022/06/11 02:00:26;;;;;;;4.57;2.30;;;;;;;;;;5019599;28;20121;-86
2022/06/11 02:03:29;;;;;;;3.75;2.40;;;;;;;;;;5019929;28;20025;-84
2022/06/11 02:05:55;;;;;;;3.38;2.42;;;;;;;;;;5019183;28;20092;-85
2022/06/11 02:08:39;;;;;;;4.05;2.35;;;;;;;;;;5019805;28;20037;-85
2022/06/11 02:11:22;;;;;;;5.13;2.22;;;;;;;;;;5002104;28;20034;-85
2022/06/11 02:14:20;;;;;;;2.88;2.20;;;;;;;;;;5019940;28;20038;-85
2022/06/11 02:16:51;;;;;;;5.72;2.50;;;;;;;;;;5017012;28;20080;-85
2022/06/11 02:19:23;;;;;;;4.22;2.30;;;;;;;;;;5017861;28;20034;-85
2022/06/11 02:22:03;;;;;;;4.80;2.38;;;;;;;;;;5019311;28;20093;-85
2022/06/11 02:24:34;;;;;;;4.32;2.30;;;;;;;;;;5018515;28;20022;-85
2022/06/11 02:27:03;;;;;;;3.92;2.47;;;;;;;;;;5018842;28;20030;-85
2022/06/11 02:29:32;;;;;;;5.10;2.22;;;;;;;;;;5018720;28;20087;-85
2022/06/11 02:32:05;;;;;;;3.83;2.28;;;;;;;;;;5019597;28;20083;-85
2022/06/11 02:34:31;;;;;;;5.35;2.47;;;;;;;;;;5018801;28;20064;-85
2022/06/11 02:36:56;;;;;;;3.55;2.38;;;;;;;;;;5019155;28;20029;-85
2022/06/11 02:39:23;;;;;;;4.25;2.17;;;;;;;;;;5018839;28;20038;-85
2022/06/11 02:41:50;;;;;;;3.25;2.20;;;;;;;;;;5018831;28;20109;-86
2022/06/11 02:44:15;;;;;;;3.38;2.42;;;;;;;;;;5016491;28;20038;-85
2022/06/11 02:46:43;;;;;;;3.95;2.42;;;;;;;;;;5018508;28;20498;-86
2022/06/11 02:49:14;;;;;;;5.68;2.50;;;;;;;;;;5017260;28;20038;-85
2022/06/11 02:51:40;;;;;;;4.95;2.50;;;;;;;;;;5018601;28;20483;-85
2022/06/11 02:54:06;;;;;;;2.90;2.25;;;;;;;;;;5016459;28;20092;-84
2022/06/11 02:56:31;;;;;;;4.00;2.33;;;;;;;;;;5018415;28;20033;-85
2022/06/11 02:58:57;;;;;;;3.10;2.35;;;;;;;;;;5019024;28;20494;-85
2022/06/11 03:01:23;;;;;;;3.72;2.40;;;;;;;;;;5017257;28;20037;-85
2022/06/11 03:03:51;;;;;;;4.70;2.50;;;;;;;;;;5017811;28;20038;-84
2022/06/11 03:06:23;;;;;;;3.70;2.38;;;;;;;;;;5017373;28;20036;-85
2022/06/11 03:08:48;;;;;;;4.28;2.40;;;;;;;;;;5017597;28;20040;-85
2022/06/11 03:11:14;;;;;;;5.53;2.50;;;;;;;;;;5017903;28;20046;-85
2022/06/11 03:13:39;;;;;;;6.78;2.72;;;;;;;;;;5016718;28;20096;-85
2022/06/11 03:16:06;;;;;;;5.18;2.80;;;;;;;;;;5017613;28;20029;-85
2022/06/11 03:18:32;;;;;;;4.57;2.45;;;;;;;;;;5017773;28;20029;-85
2022/06/11 03:20:58;;;;;;;4.32;2.58;;;;;;;;;;5017249;28;20056;-85
2022/06/11 03:23:26;;;;;;;3.50;2.33;;;;;;;;;;5017610;28;20034;-85
2022/06/11 03:25:52;;;;;;;3.08;2.25;;;;;;;;;;5017806;28;20041;-85
2022/06/11 03:28:22;;;;;;;2.67;2.38;;;;;;;;;;5017733;28;20372;-84
2022/06/11 03:30:49;;;;;;;3.63;2.40;;;;;;;;;;5015976;28;20042;-84
2022/06/11 03:33:15;;;;;;;3.50;2.58;;;;;;;;;;5017863;28;20042;-85
2022/06/11 03:35:43;;;;;;;3.35;2.40;;;;;;;;;;5017241;28;20040;-85
2022/06/11 03:38:09;;;;;;;3.53;2.50;;;;;;;;;;5017573;28;20403;-84
2022/06/11 03:40:35;;;;;;;3.53;2.40;;;;;;;;;;4999413;28;20088;-84
2022/06/11 03:43:01;;;;;;;3.42;2.45;;;;;;;;;;5017673;28;20529;-84
2022/06/11 03:45:27;;;;;;;4.53;2.30;;;;;;;;;;5015460;28;20037;-86
2022/06/11 03:47:53;;;;;;;6.10;2.70;;;;;;;;;;5016396;28;20125;-86
2022/06/11 03:50:23;;;;;;;2.92;2.47;;;;;;;;;;5015880;28;20038;-85
2022/06/11 03:52:49;;;;;;;3.28;2.42;;;;;;;;;;5015812;28;20021;-86
2022/06/11 03:55:14;;;;;;;3.00;2.35;;;;;;;;;;5016555;28;20053;-86
2022/06/11 03:57:40;;;;;;;4.03;2.40;;;;;;;;;;5017076;28;20040;-85
2022/06/11 04:00:10;;;;;;;3.47;2.40;;;;;;;;;;5017027;28;20037;-86
2022/06/11 04:02:36;;;;;;;3.20;2.55;;;;;;;;;;5015947;28;20454;-85
2022/06/11 04:05:03;;;;;;;4.05;2.50;;;;;;;;;;5015692;28;20056;-85
2022/06/11 04:07:30;;;;;;;4.18;2.72;;;;;;;;;;5016064;28;20112;-85
2022/06/11 04:09:56;;;;;;;3.65;2.40;;;;;;;;;;5016862;28;20091;-86
2022/06/11 04:12:22;;;;;;;6.32;2.47;;;;;;;;;;5017483;28;20113;-86
2022/06/11 04:14:49;;;;;;;4.78;2.40;;;;;;;;;;5016492;28;20034;-86
2022/06/11 04:17:19;;;;;;;3.67;2.47;;;;;;;;;;5016617;28;20026;-86
2022/06/11 04:19:47;;;;;;;3.63;2.53;;;;;;;;;;5016635;28;20037;-86
2022/06/11 04:22:14;;;;;;;3.45;2.60;;;;;;;;;;5017026;28;20034;-85
2022/06/11 04:24:40;;;;;;;3.30;2.42;;;;;;;;;;5016091;28;20041;-85
2022/06/11 04:27:08;;;;;;;6.10;2.85;;;;;;;;;;5016858;28;20026;-85
2022/06/11 04:29:38;;;;;;;4.90;2.50;;;;;;;;;;5016330;28;20057;-84
2022/06/11 04:32:06;;;;;;;4.32;2.33;;;;;;;;;;5017039;28;20061;-85
2022/06/11 04:34:32;;;;;;;3.13;2.40;;;;;;;;;;5016012;28;20038;-85
2022/06/11 04:36:58;;;;;;;5.00;2.60;;;;;;;;;;5016509;28;20037;-85
2022/06/11 04:39:28;;;;;;;2.85;2.22;;;;;;;;;;5016930;28;20026;-86
2022/06/11 04:41:55;;;;;;;4.90;2.63;;;;;;;;;;5021324;28;20111;-85
2022/06/11 04:44:21;;;;;;;3.88;2.60;;;;;;;;;;5022693;28;20136;-85
2022/06/11 04:46:47;;;;;;;3.75;2.42;;;;;;;;;;5023412;28;20042;-85
2022/06/11 04:49:13;;;;;;;3.83;2.60;;;;;;;;;;5023277;28;20045;-86
2022/06/11 04:51:39;;;;;;;3.53;2.30;;;;;;;;;;5022268;28;20029;-86
2022/06/11 04:54:05;;;;;;;4.63;2.80;;;;;;;;;;5022815;28;20392;-86
2022/06/11 04:56:31;;;;;;;3.65;2.42;;;;;;;;;;5022235;28;20030;-86
2022/06/11 04:58:58;;;;;;;3.53;2.40;;;;;;;;;;5024384;28;20037;-86
2022/06/11 05:01:25;;;;;;;3.38;2.55;;;;;;;;;;5023929;28;20049;-86
2022/06/11 05:03:51;;;;;;;3.10;2.55;;;;;;;;;;5023562;28;20038;-86
2022/06/11 05:06:20;;;;;;;4.93;2.70;;;;;;;;;;5021163;28;20402;-86
2022/06/11 05:08:46;;;;;;;3.42;2.30;;;;;;;;;;5024212;28;20040;-85
2022/06/11 05:11:12;;;;;;;4.40;2.40;;;;;;;;;;5023363;28;20034;-85
2022/06/11 05:13:38;;;;;;;3.80;2.50;;;;;;;;;;5022180;28;20109;-86
2022/06/11 05:16:04;;;;;;;4.88;2.50;;;;;;;;;;5022921;28;20038;-86
2022/06/11 05:18:33;;;;;;;3.65;2.50;;;;;;;;;;5023366;28;20128;-86
2022/06/11 05:20:59;;;;;;;3.55;2.40;;;;;;;;;;5023879;28;20080;-86
2022/06/11 05:23:25;;;;;;;6.68;2.42;;;;;;;;;;5021987;28;20017;-85
2022/06/11 05:25:50;;;;;;;3.53;2.40;;;;;;;;;;5023008;28;20042;-86
2022/06/11 05:28:23;;;;;;;5.22;2.20;;;;;;;;;;5023091;28;20426;-86
2022/06/11 05:30:52;;;;;;;2.50;2.05;;;;;;;;;;5023513;28;20490;-85
2022/06/11 05:33:19;;;;;;;3.88;2.20;;;;;;;;;;5023120;28;20057;-85
2022/06/11 05:35:45;;;;;;;4.05;2.35;;;;;;;;;;5021334;28;20368;-86
2022/06/11 05:38:15;;;;;;;5.47;2.58;;;;;;;;;;5006022;28;20033;-86
2022/06/11 05:40:44;;;;;;;2.70;2.33;;;;;;;;;;5023419;28;20085;-87
2022/06/11 05:43:10;;;;;;;6.03;2.28;;;;;;;;;;5023478;28;20036;-86
2022/06/11 05:45:43;;;;;;;4.03;2.28;;;;;;;;;;5023457;28;20064;-86
2022/06/11 05:48:10;;;;;;;3.47;2.15;;;;;;;;;;5024297;28;20491;-86
2022/06/11 05:50:48;;;;;;;4.13;2.10;;;;;;;;;;5027072;28;20034;-86
2022/06/11 05:53:18;;;;;;;4.05;2.20;;;;;;;;;;5019208;28;20030;-86
2022/06/11 05:55:46;;;;;;;3.28;2.30;;;;;;;;;;5018504;28;20034;-87
2022/06/11 05:58:25;;;;;;;5.15;2.25;;;;;;;;;;5021373;28;20029;-87
2022/06/11 06:00:54;;;;;;;3.20;2.25;;;;;;;;;;5021658;28;20038;-86
2022/06/11 06:03:20;;;;;;;4.57;2.20;;;;;;;;;;5019383;28;20030;-87
2022/06/11 06:05:45;;;;;;;4.20;2.20;;;;;;;;;;5019874;28;20452;-86
2022/06/11 06:08:11;;;;;;;4.97;2.17;;;;;;;;;;5025022;28;20048;-87
2022/06/11 06:10:36;;;;;;;8.20;2.10;;;;;;;;;;5026174;28;20038;-87
2022/06/11 06:13:45;;;;;;;4.32;1.98;;;;;;;;;;5023776;28;20034;-87
2022/06/11 06:15:50;;;;;;;2.78;2.03;;;;;;;;;;5024063;28;20520;-87
2022/06/11 06:18:16;;;;;;;3.75;2.28;;;;;;;;;;5026371;28;20029;-87
2022/06/11 06:20:41;;;;;;;3.40;2.25;;;;;;;;;;5025525;28;20125;-87
2022/06/11 06:23:07;;;;;;;2.67;1.83;;;;;;;;;;5024884;28;20034;-87
2022/06/11 06:25:32;;;;;;;2.50;2.00;;;;;;;;;;5022411;28;20037;-87
2022/06/11 06:27:58;;;;;;;3.08;2.20;;;;;;;;;;5024182;28;20060;-87
2022/06/11 06:30:23;;;;;;;3.47;2.10;;;;;;;;;;5024443;28;20042;-87
2022/06/11 06:32:49;;;;;;;2.40;1.83;;;;;;;;;;5026714;28;20045;-85
2022/06/11 06:35:14;;;;;;;3.15;2.10;;;;;;;;;;5023132;28;20041;-87
2022/06/11 06:37:40;;;;;;;4.88;2.00;;;;;;;;;;5023649;28;20128;-87
2022/06/11 06:40:06;;;;;;;3.85;2.00;;;;;;;;;;5024985;28;20033;-87
2022/06/11 06:42:32;;;;;;;6.03;2.05;;;;;;;;;;5023029;28;20045;-85
2022/06/11 06:45:02;;;;;;;3.17;2.10;;;;;;;;;;5022634;28;20109;-87
2022/06/11 06:47:28;;;;;;;3.33;1.92;;;;;;;;;;5022563;28;20048;-86
2022/06/11 06:49:54;;;;;;;3.55;2.00;;;;;;;;;;5023248;28;20026;-87
2022/06/11 06:52:20;;;;;;;4.45;2.08;;;;;;;;;;5022247;28;20034;-86
2022/06/11 06:54:46;;;;;;;4.07;1.90;;;;;;;;;;5022168;28;20113;-87
2022/06/11 06:57:11;;;;;;;2.70;1.80;;;;;;;;;;5023605;28;20188;-87
2022/06/11 06:59:37;;;;;;;5.10;1.90;;;;;;;;;;5025131;28;20040;-87
2022/06/11 07:02:03;;;;;;;8.05;1.90;;;;;;;;;;5026667;28;20133;-86
2022/06/11 07:04:28;;;;;;;2.97;1.90;;;;;;;;;;5022552;28;20033;-87
2022/06/11 07:06:54;;;;;;;3.85;1.88;;;;;;;;;;5024657;28;20042;-87
2022/06/11 07:09:20;;;;;;;3.85;1.90;;;;;;;;;;5020679;28;20038;-88
2022/06/11 07:11:45;;;;;;;3.95;2.05;;;;;;;;;;5016673;28;20038;-88
2022/06/11 07:14:11;;;;;;;8.43;2.00;;;;;;;;;;5000718;28;20057;-87
2022/06/11 07:16:41;;;;;;;4.32;2.00;;;;;;;;;;5022839;28;20077;-87
2022/06/11 07:19:15;;;;;;;2.58;1.70;;;;;;;;;;5007027;28;20034;-86
2022/06/11 07:21:45;;;;;;;4.50;1.88;;;;;;;;;;5023581;28;20029;-88
2022/06/11 07:24:16;;;;;;;2.55;1.77;;;;;;;;;;5018625;28;20482;-87
2022/06/11 07:26:46;;;;;;;2.70;1.90;;;;;;;;;;5020745;28;20080;-87
2022/06/11 07:29:36;;;;;;;3.45;1.80;;;;;;;;;;5020680;28;20088;-87
2022/06/11 07:32:06;;;;;;;2.72;1.85;;;;;;;;;;5020092;28;20092;-87
2022/06/11 07:34:34;;;;;;;3.33;1.70;;;;;;;;;;5020980;28;20080;-86
2022/06/11 07:37:00;;;;;;;2.75;1.83;;;;;;;;;;5020326;28;20034;-87
2022/06/11 07:39:26;;;;;;;3.22;1.90;;;;;;;;;;5020626;28;20091;-86
2022/06/11 07:41:51;;;;;;;2.47;1.70;;;;;;;;;;5019720;28;20030;-86
2022/06/11 07:44:17;;;;;;;4.63;1.88;;;;;;;;;;5020639;28;20033;-87
2022/06/11 07:46:42;;;;;;;1.65;1.55;;;;;;;;;;5020961;28;20251;-87
2022/06/11 07:49:07;;;;;;;4.00;1.92;;;;;;;;;;5021205;28;20030;-87
2022/06/11 07:51:33;;;;;;;2.45;1.63;;;;;;;;;;5020175;28;20093;-86
2022/06/11 07:53:58;;;;;;;3.03;1.73;;;;;;;;;;5019444;28;20045;-86
2022/06/11 07:56:24;;;;;;;2.75;1.70;;;;;;;;;;5021179;28;20053;-87
2022/06/11 07:58:52;;;;;;;2.55;1.70;;;;;;;;;;5020155;28;20037;-87
2022/06/11 08:01:17;;;;;;;3.28;1.67;;;;;;;;;;5021206;28;20399;-86
2022/06/11 08:03:42;;;;;;;2.45;1.73;;;;;;;;;;5020154;28;20483;-87
2022/06/11 08:06:08;;;;;;;3.00;1.70;;;;;;;;;;5021284;28;20042;-85
2022/06/11 08:08:35;;;;;;;3.83;1.80;;;;;;;;;;5020426;28;20038;-86
2022/06/11 08:11:02;;;;;;;3.45;1.70;;;;;;;;;;5020890;28;20061;-87
2022/06/11 08:13:28;;;;;;;2.70;1.40;;;;;;;;;;5020776;28;20116;-87
2022/06/11 08:15:54;;;;;;;2.58;1.75;;;;;;;;;;5019592;28;20075;-87
2022/06/11 08:18:21;;;;;;;2.63;1.80;;;;;;;;;;5020497;28;20423;-86
2022/06/11 08:20:49;;;;;;;2.85;1.88;;;;;;;;;;5020827;28;20038;-87
2022/06/11 08:23:15;;;;;;;2.10;1.60;;;;;;;;;;5020512;28;20272;-87
2022/06/11 08:25:40;;;;;;;2.03;1.60;;;;;;;;;;5020383;28;20038;-86
2022/06/11 08:28:06;;;;;;;2.58;1.80;;;;;;;;;;5020910;28;20053;-87
2022/06/11 08:30:33;;;;;;;3.30;1.90;;;;;;;;;;5019666;28;20052;-87
2022/06/11 08:32:59;;;;;;;3.33;2.03;;;;;;;;;;5020737;28;20030;-87
2022/06/11 08:35:27;;;;;;;4.40;1.90;;;;;;;;;;5021038;28;20125;-86
2022/06/11 08:37:53;;;;;;;2.88;1.70;;;;;;;;;;5020457;28;20034;-86
2022/06/11 08:40:33;;;;;;;2.60;1.67;;;;;;;;;;5021110;28;20025;-87
2022/06/11 08:43:13;;;;;;;3.72;1.80;;;;;;;;;;5019147;28;20139;-88
2022/06/11 08:46:03;;;;;;;4.22;2.00;;;;;;;;;;5020249;28;20033;-87
2022/06/11 08:48:37;;;;;;;4.78;2.10;;;;;;;;;;5020100;28;20112;-87
2022/06/11 08:51:26;;;;;;;3.75;2.00;;;;;;;;;;5021179;28;20040;-87
2022/06/11 08:53:54;;;;;;;4.47;2.13;;;;;;;;;;5020959;28;20410;-86
2022/06/11 08:56:20;;;;;;;3.22;2.20;;;;;;;;;;5021487;28;20034;-86
2022/06/11 08:59:13;;;;;;;4.47;2.40;;;;;;;;;;5020342;28;20034;-87
2022/06/11 09:02:15;;;;;;;3.33;2.00;;;;;;;;;;5019366;28;20391;-86
2022/06/11 09:04:53;;;;;;;4.53;2.20;;;;;;;;;;5020341;28;20049;-87
2022/06/11 09:07:31;;;;;;;6.95;1.98;;;;;;;;;;5021238;28;20052;-86
2022/06/11 09:10:15;;;;;;;2.85;1.98;;;;;;;;;;5024521;28;20089;-86
2022/06/11 09:12:49;;;;;;;3.15;1.85;;;;;;;;;;5021797;28;20077;-86
2022/06/11 09:15:19;;;;;;;2.78;2.10;;;;;;;;;;5020760;28;20034;-87
2022/06/11 09:17:59;;;;;;;2.55;1.90;;;;;;;;;;5021130;28;20037;-86
2022/06/11 09:20:31;;;;;;;2.75;1.80;;;;;;;;;;5021536;28;20097;-87
2022/06/11 09:23:26;;;;;;;4.93;2.20;;;;;;;;;;5022604;28;20056;-86
2022/06/11 09:25:51;;;;;;;4.80;2.03;;;;;;;;;;5007448;28;20054;-86
2022/06/11 09:28:39;;;;;;;3.05;2.00;;;;;;;;;;5025925;28;20060;-87
2022/06/11 09:31:12;;;;;;;4.38;2.00;;;;;;;;;;5026732;28;20041;-87
2022/06/11 09:33:41;;;;;;;;;;;;;;;;;;5027979;28;20037;-87
2022/06/11 09:36:21;;;;;;;3.50;2.10;;;;;;;;;;5027304;28;19920;-87
2022/06/11 09:39:02;;;;;;;3.00;2.00;;;;;;;;;;5027331;28;20034;-87
2022/06/11 09:41:55;;;;;;;4.38;2.03;;;;;;;;;;5026117;28;20486;-87
2022/06/11 09:44:30;;;;;;;2.22;1.80;;;;;;;;;;5025983;28;20038;-87
2022/06/11 09:47:02;;;;;;;2.15;1.70;;;;;;;;;;5027449;28;20301;-87
2022/06/11 09:49:46;;;;;;;4.65;1.88;;;;;;;;;;5029776;28;20034;-87
2022/06/11 09:52:26;;;;;;;3.45;1.90;;;;;;;;;;5028569;28;20077;-87
2022/06/11 09:55:31;;;;;;;4.35;1.90;;;;;;;;;;5027838;28;20094;-88
2022/06/11 09:58:20;;;;;;;3.05;1.58;;;;;;;;;;5028031;28;20034;-87
2022/06/11 10:00:54;;;;;;;6.30;2.00;;;;;;;;;;5027513;28;20490;-87
2022/06/11 10:03:31;;;;;;;3.65;1.77;;;;;;;;;;5027842;28;20030;-87
2022/06/11 10:06:03;;;;;;;3.97;1.80;;;;;;;;;;5025142;28;20053;-86
2022/06/11 10:08:38;;;;;;;5.43;2.00;;;;;;;;;;5027522;28;20034;-87
2022/06/11 10:11:10;;;;;;;3.03;1.90;;;;;;;;;;5027086;28;20093;-87
2022/06/11 10:13:46;;;;;;;3.10;1.80;;;;;;;;;;5009374;28;20495;-88
2022/06/11 10:16:34;;;;;;;3.55;1.80;;;;;;;;;;5026754;28;20280;-87
2022/06/11 10:19:23;;;;;;;2.95;1.80;;;;;;;;;;5027125;28;20069;-87
2022/06/11 10:22:00;;;;;;;2.80;1.60;;;;;;;;;;5026108;28;20038;-87
2022/06/11 10:24:28;;;;;;;3.45;1.90;;;;;;;;;;5026098;28;20410;-86
2022/06/11 10:27:00;;;;;;;2.83;1.80;;;;;;;;;;5025691;28;20038;-86
2022/06/11 10:29:39;;;;;;;2.95;1.90;;;;;;;;;;5026259;28;20041;-87
2022/06/11 10:32:11;;;;;;;2.35;1.60;;;;;;;;;;5027471;28;20108;-87
2022/06/11 10:34:41;;;;;;;3.92;1.80;;;;;;;;;;5025245;28;20038;-87
2022/06/11 10:37:26;;;;;;;2.53;1.88;;;;;;;;;;5026016;28;20042;-88
2022/06/11 10:40:16;;;;;;;4.80;1.90;;;;;;;;;;5026102;28;20128;-87
2022/06/11 10:42:53;;;;;;;3.30;1.60;;;;;;;;;;5026554;28;20038;-87
2022/06/11 10:45:19;;;;;;;2.15;1.65;;;;;;;;;;5025875;28;20034;-87
2022/06/11 10:47:51;;;;;;;4.97;1.77;;;;;;;;;;5026667;28;20052;-86
2022/06/11 10:50:21;;;;;;;2.78;1.60;;;;;;;;;;5026618;28;20053;-88
2022/06/11 10:53:08;;;;;;;4.28;1.88;;;;;;;;;;5026473;28;20097;-87
2022/06/11 10:55:44;;;;;;;2.45;1.65;;;;;;;;;;5025337;28;20049;-87
2022/06/11 10:58:20;;;;;;;2.65;1.45;;;;;;;;;;5025377;28;20038;-87
2022/06/11 11:00:53;;;;;;;5.85;1.60;;;;;;;;;;5026337;28;20034;-87
2022/06/11 11:03:35;;;;;;;4.30;1.80;;;;;;;;;;5026222;28;20038;-87
2022/06/11 11:06:19;;;;;;;3.13;1.70;;;;;;;;;;5025768;28;20280;-88
2022/06/11 11:08:54;;;;;;;3.05;1.70;;;;;;;;;;5026249;28;20042;-87
2022/06/11 11:11:21;;;;;;;3.00;2.00;;;;;;;;;;5025041;28;20467;-87
2022/06/11 11:13:48;;;;;;;2.28;1.30;;;;;;;;;;5025671;28;20117;-87
2022/06/11 11:16:17;;;;;;;4.35;1.60;;;;;;;;;;5023285;28;20034;-88
2022/06/11 11:18:45;;;;;;;3.83;2.00;;;;;;;;;;5025262;28;20095;-88
2022/06/11 11:21:22;;;;;;;2.30;1.45;;;;;;;;;;5025966;28;20089;-87
2022/06/11 11:23:50;;;;;;;2.70;1.83;;;;;;;;;;5025790;28;20034;-87
2022/06/11 11:26:27;;;;;;;3.45;1.40;;;;;;;;;;5025757;28;20038;-87
2022/06/11 11:28:53;;;;;;;1.95;1.30;;;;;;;;;;5027624;28;20046;-88
2022/06/11 11:31:23;;;;;;;2.00;1.23;;;;;;;;;;5025222;28;20064;-89
2022/06/11 11:34:11;;;;;;;3.58;1.40;;;;;;;;;;5026599;28;20074;-86
2022/06/11 11:36:38;;;;;;;2.83;1.58;;;;;;;;;;5026946;28;20486;-88
2022/06/11 11:39:12;;;;;;;3.20;1.50;;;;;;;;;;5025761;28;20099;-88
2022/06/11 11:41:49;;;;;;;1.73;1.15;;;;;;;;;;5025889;28;20068;-88
2022/06/11 11:44:19;;;;;;;1.80;1.15;;;;;;;;;;5024741;28;20037;-88
2022/06/11 11:46:50;;;;;;;4.95;1.38;;;;;;;;;;5025481;28;20033;-88
2022/06/11 11:49:22;;;;;;;1.65;1.25;;;;;;;;;;5026355;28;20077;-88
2022/06/11 11:51:48;;;;;;;2.17;1.40;;;;;;;;;;5025508;28;20038;-87
2022/06/11 11:54:17;;;;;;;1.38;1.20;;;;;;;;;;5024888;28;20037;-87
2022/06/11 11:56:56;;;;;;;1.20;1.10;;;;;;;;;;5024160;28;20033;-88
2022/06/11 11:59:28;;;;;;;2.35;1.30;;;;;;;;;;5023770;28;20029;-87
2022/06/11 12:02:03;;;;;;;1.27;1.05;;;;;;;;;;5024983;28;20061;-88
2022/06/11 12:04:35;;;;;;;2.38;1.30;;;;;;;;;;5023092;28;20045;-88
2022/06/11 12:07:07;;;;;;;3.97;1.20;;;;;;;;;;5024154;28;20034;-87
2022/06/11 12:10:06;;;;;;;1.83;1.00;;;;;;;;;;5024898;28;20502;-87
2022/06/11 12:12:35;;;;;;;1.23;0.90;;;;;;;;;;5024488;28;20037;-88
2022/06/11 12:15:17;;;;;;;2.90;1.10;;;;;;;;;;5024760;28;20044;-87
2022/06/11 12:17:48;;;;;;;1.33;0.98;;;;;;;;;;5022293;28;20033;-88
2022/06/11 12:21:02;;;;;;;1.30;0.85;;;;;;;;;;5023664;28;20053;-88
2022/06/11 12:23:40;;;;;;;3.13;1.15;;;;;;;;;;5000349;28;20049;-88
2022/06/11 12:26:09;;;;;;;2.13;0.90;;;;;;;;;;5022694;28;20136;-87
2022/06/11 12:28:42;;;;;;;3.42;1.00;;;;;;;;;;5024254;28;20052;-88
2022/06/11 12:31:10;;;;;;;1.95;1.20;;;;;;;;;;5024017;28;20052;-86
2022/06/11 12:33:42;;;;;;;1.40;1.00;;;;;;;;;;5021891;28;20041;-87
2022/06/11 12:36:19;;;;;;;1.58;1.00;;;;;;;;;;5019338;28;20122;-85
2022/06/11 12:39:01;;;;;;;1.35;1.10;;;;;;;;;;5020308;28;20096;-88
2022/06/11 12:41:51;;;;;;;1.50;0.90;;;;;;;;;;5040652;28;20034;-87
2022/06/11 12:45:04;;;;;;;3.53;1.05;;;;;;;;;;5039626;28;20026;-88
2022/06/11 12:47:54;;;;;;;1.63;1.20;;;;;;;;;;4998031;28;20048;-88
2022/06/11 12:50:31;;;;;;;1.15;1.00;;;;;;;;;;5039349;28;20053;-88
2022/06/11 12:53:30;;;;;;;1.73;1.20;;;;;;;;;;5039138;28;20037;-88
2022/06/11 12:56:03;;;;;;;2.22;0.93;;;;;;;;;;5031087;28;20033;-88
2022/06/11 12:58:43;;;;;;;1.13;1.00;;;;;;;;;;5028956;28;20041;-88
2022/06/11 13:01:09;;;;;;;1.27;1.00;;;;;;;;;;5028859;28;20034;-89
2022/06/11 13:03:49;;;;;;;2.75;1.10;;;;;;;;;;5031663;28;20040;-88
2022/06/11 13:06:35;;;;;;;1.67;1.17;;;;;;;;;;5031752;28;20052;-86
2022/06/11 13:09:08;;;;;;;1.33;1.05;;;;;;;;;;5032255;28;20025;-88
2022/06/11 13:11:54;;;;;;;2.13;1.17;;;;;;;;;;5032743;28;20030;-88
2022/06/11 13:15:03;;;;;;;1.38;1.10;;;;;;;;;;5028430;28;20038;-87
2022/06/11 13:17:40;;;;;;;2.35;1.23;;;;;;;;;;5034996;28;20092;-88
2022/06/11 13:20:30;;;;;;;2.88;1.50;;;;;;;;;;5031540;28;20561;-88
2022/06/11 13:23:12;;;;;;;2.40;1.40;;;;;;;;;;5031420;28;20042;-87
2022/06/11 13:25:44;;;;;;;2.28;1.40;;;;;;;;;;5031841;28;20044;-88
2022/06/11 13:28:28;;;;;;;1.38;1.15;;;;;;;;;;5032472;28;20044;-87
2022/06/11 13:31:05;;;;;;;1.80;1.20;;;;;;;;;;5022869;28;20050;-88
2022/06/11 13:33:52;;;;;;;1.80;1.20;;;;;;;;;;5003698;28;20049;-88
2022/06/11 13:36:35;;;;;;;3.42;1.40;;;;;;;;;;5021121;28;20107;-88
2022/06/11 13:39:11;;;;;;;1.65;1.40;;;;;;;;;;5021179;28;20061;-88
2022/06/11 13:41:41;;;;;;;2.97;1.33;;;;;;;;;;5018929;28;20132;-87
2022/06/11 13:44:16;;;;;;;1.98;1.30;;;;;;;;;;5020012;28;20041;-87
2022/06/11 13:47:22;;;;;;;2.33;1.30;;;;;;;;;;5019923;28;20445;-86
2022/06/11 13:50:25;;;;;;;1.83;1.20;;;;;;;;;;5020790;28;20029;-89
2022/06/11 13:55:53;;;;;;;1.60;1.10;;;;;;;;;;5019584;28;20113;-88
2022/06/11 13:58:45;;;;;;;2.30;1.40;;;;;;;;;;5023639;28;20050;-87
2022/06/11 14:01:34;;;;;;;2.67;1.25;;;;;;;;;;5023363;28;20430;-89
2022/06/11 14:04:09;;;;;;;2.63;1.40;;;;;;;;;;5017467;28;20108;-89
2022/06/11 14:06:37;;;;;;;1.90;1.27;;;;;;;;;;5023504;28;20041;-88
2022/06/11 14:09:03;;;;;;;1.40;1.30;;;;;;;;;;5022796;28;20033;-89
2022/06/11 14:11:37;;;;;;;2.45;1.40;;;;;;;;;;5022503;28;20033;-89
2022/06/11 14:14:04;;;;;;;2.33;1.30;;;;;;;;;;5019962;28;20042;-89
2022/06/11 14:16:40;;;;;;;1.80;1.30;;;;;;;;;;5021373;28;20064;-88
2022/06/11 14:19:12;;;;;;;1.40;1.30;;;;;;;;;;5021038;28;20045;-88
2022/06/11 14:21:38;;;;;;;4.05;1.30;;;;;;;;;;5020733;28;20037;-88
2022/06/11 14:24:05;;;;;;;3.78;1.30;;;;;;;;;;5020262;28;20044;-88
2022/06/11 14:26:45;;;;;;;3.15;1.50;;;;;;;;;;5019206;28;20038;-88
2022/06/11 14:29:25;;;;;;;2.30;1.45;;;;;;;;;;5020061;28;20033;-88
2022/06/11 14:31:55;;;;;;;1.73;1.20;;;;;;;;;;5021929;28;20040;-88
2022/06/11 14:34:28;;;;;;;2.83;1.30;;;;;;;;;;5019567;28;20140;-88
2022/06/11 14:37:14;;;;;;;4.03;1.40;;;;;;;;;;5020510;28;20033;-88
2022/06/11 14:39:42;;;;;;;3.28;1.40;;;;;;;;;;5019335;28;20030;-87
2022/06/11 14:42:21;;;;;;;2.15;1.38;;;;;;;;;;5021150;28;20032;-88
2022/06/11 14:45:25;;;;;;;2.97;1.40;;;;;;;;;;5019313;28;20453;-87
2022/06/11 14:47:57;;;;;;;2.53;1.30;;;;;;;;;;5020817;28;20040;-88
2022/06/11 14:51:04;;;;;;;2.10;1.30;;;;;;;;;;5020916;28;20284;-88
2022/06/11 14:53:33;;;;;;;2.80;1.40;;;;;;;;;;5016435;28;20061;-87
2022/06/11 14:56:14;;;;;;;2.53;1.50;;;;;;;;;;5019393;28;20060;-88
2022/06/11 14:59:08;;;;;;;3.33;1.60;;;;;;;;;;5018913;28;20544;-87
2022/06/11 15:01:44;;;;;;;;;;;;;;;;;;5020991;28;20033;-86
2022/06/11 15:04:37;;;;;;;2.47;1.45;;;;;;;;;;5017972;28;19914;-86
2022/06/11 15:07:15;;;;;;;1.67;1.38;;;;;;;;;;5024784;28;20089;-86
2022/06/11 15:10:03;;;;;;;1.42;1.30;;;;;;;;;;5029990;28;20045;-88
2022/06/11 15:12:43;;;;;;;1.80;1.38;;;;;;;;;;5024478;28;20087;-89
2022/06/11 15:15:46;;;;;;;1.70;1.30;;;;;;;;;;5034094;28;20092;-88
2022/06/11 15:18:24;;;;;;;1.77;1.25;;;;;;;;;;5037571;28;20037;-87
2022/06/11 15:21:18;;;;;;;1.98;1.23;;;;;;;;;;5036586;28;20116;-87
2022/06/11 15:23:47;;;;;;;2.22;1.30;;;;;;;;;;5032371;28;20050;-88